Hamilton Island, Queensland

12:47 AM AEST on August 04, 2015 (GMT +1000)
Hamilton Island | | Change Station
CLOSE
Current Station
Airport
Location: Hamilton Island,
Elevation: 16 ft
Nearby Weather Stations

Elev 16 ft 20.36 °S, 148.95 °E | Updated 17 minutes ago

Clear
Clear
66 °F
Feels Like 66 °F
N
4
Wind Variable Wind from SSW

Today
High -- | Low -- °F
--% Chance of Precip.
Yesterday
High -- | Low -- °F
Precip. -- in
6:33 AM 5:47 PM
Waning Gibbous, 86% visible
Pressure 30.04 in
Visibility 6.2 miles
Clouds
Dew Point 64 °F
Humidity 94%
Rainfall 0.00 in
Snow Depth Not available.
UV Not available.
Pollen Not available.
Air Quality Not available.
Flu Activity Not available.
METAR YBHM 031430Z AUTO 21003KT 9999 // NCD 19/18 Q1017

More Conditions Fewer Conditions

Pressure 30.04 in
Visibility 6.2 miles
Clouds
Dew Point 64 °F
Humidity 94%
Rainfall 0.00 in
Snow Depth Not available.
UV Not available.
Pollen Not available.
Air Quality Not available.
Flu Activity Not available.
METAR YBHM 031430Z AUTO 21003KT 9999 // NCD 19/18 Q1017

More Conditions Fewer Conditions

10-Day Weather Forecast

×

Almanac

Astronomy

Aug. 04, 2015 Rise Set
Actual Time
Civil Twilight
Nautical Twilight
Astronomical Twilight
Moon
Length of Visible Light
Length of Day
Tomorrow will be .
, % of the Moon is Illuminated

Today's Extremes

Country Highs Country Lows

Community

WunderPhotos

Upload Photos

1,843,639 photos uploaded!

WunderBlogs® & News

Nearby

Air Quality

  Air Quality AQ Index Pollutant
Not available.

Snow Depth

Station Depth Elevation

Earthquake Activity

City Distance Mag. Time & Date
Minimum magnitude displayed is 2.5.

Coastal Water Temperatures

Place Temperature

Stations

Nearby Weather Stations

Station Location Temp. Windchill Dew Point Humidity Wind Precip. Elev Updated Type